Corvallis, MT (59828)

6:44 AM MST on February 07, 2016 (GMT -0700)
Charley's Gulch | | Change Station
CLOSE
Current Station
Personal Weather Station
Location: Corvallis, MT
Elevation: 3799 ft
Nearby Weather Stations

Elev 3799 ft 46.29 °N, 114.05 °W | Updated 2 minutes ago

Rain
Rain
24.4 °F
Feels Like 24 °F
N
1.7
Wind Variable Wind from ESE

Today
High -- | Low -- °F
--% Chance of Precip.
Yesterday
High -- | Low -- °F
Precip. -- in
Pressure 30.63 in
Visibility 10.0 miles
Clouds Clear
Windchill 24 °F
Dew Point 18 °F
Humidity 77%
Rainfall 0.00 in
Snow Depth Not available.
7:52 AM 5:49 PM
Waning Crescent, 1% visible
METAR KMSO 071253Z AUTO 00000KT 10SM CLR M07/M09 A3052 RMK AO2 SLP372 T10721094 $
Pressure 30.63 in
Visibility 10.0 miles
Clouds Clear
Windchill 24 °F
Dew Point 18 °F
Humidity 77%
Rainfall 0.00 in
Snow Depth Not available.
7:52 AM 5:49 PM
Waning Crescent, 1% visible
METAR KMSO 071253Z AUTO 00000KT 10SM CLR M07/M09 A3052 RMK AO2 SLP372 T10721094 $

10-Day Weather Forecast

Almanac

Astronomy

Feb. 07, 2016 Rise Set
Actual Time
Civil Twilight
Nautical Twilight
Astronomical Twilight
Moon
Length of Visible Light
Length of Day
Tomorrow will be .
, % of the Moon is Illuminated

Today's Extremes

State Highs State Lows

Community

WunderPhotos

Upload Photos

1,891,190 photos uploaded!

WunderBlog® & News

Nearby

Air Quality

  Air Quality AQ Index Pollutant
Not available.

Snow Depth

Station Depth Elevation

Earthquake Activity

City Distance Mag. Time & Date
Minimum magnitude displayed is 2.5.

Coastal Water Temperatures

Place Temperature

Stations

Nearby Weather Stations

Station Location Temp. Windchill Dew Point Humidity Wind Precip. Elev Updated Type
                   

Watches & Warnings

There are currently no watches in effect.